sensor_id;sensor_type;location;lat;lon;timestamp;P1;durP1;ratioP1;P2;durP2;ratioP2
12900;SDS011;6518;50.930;5.344;2023-08-01T00:01:38;2.67;;;0.70;;
12900;SDS011;6518;50.930;5.344;2023-08-01T00:04:10;4.43;;;0.70;;
12900;SDS011;6518;50.930;5.344;2023-08-01T00:06:37;1.10;;;0.70;;
12900;SDS011;6518;50.930;5.344;2023-08-01T00:09:04;1.85;;;0.70;;
12900;SDS011;6518;50.930;5.344;2023-08-01T00:11:31;2.65;;;0.80;;
12900;SDS011;6518;50.930;5.344;2023-08-01T00:13:58;2.35;;;0.95;;
12900;SDS011;6518;50.930;5.344;2023-08-01T00:16:26;1.60;;;0.80;;
12900;SDS011;6518;50.930;5.344;2023-08-01T00:18:53;1.00;;;0.90;;
12900;SDS011;6518;50.930;5.344;2023-08-01T00:21:20;1.27;;;0.80;;
12900;SDS011;6518;50.930;5.344;2023-08-01T00:23:47;0.70;;;0.70;;
12900;SDS011;6518;50.930;5.344;2023-08-01T00:26:14;1.00;;;0.90;;
12900;SDS011;6518;50.930;5.344;2023-08-01T00:28:41;1.38;;;0.98;;
12900;SDS011;6518;50.930;5.344;2023-08-01T00:31:08;2.90;;;1.00;;
12900;SDS011;6518;50.930;5.344;2023-08-01T00:33:36;2.00;;;1.05;;
12900;SDS011;6518;50.930;5.344;2023-08-01T00:36:04;2.17;;;1.10;;
12900;SDS011;6518;50.930;5.344;2023-08-01T00:38:34;1.77;;;0.93;;
12900;SDS011;6518;50.930;5.344;2023-08-01T00:41:02;2.03;;;1.00;;
12900;SDS011;6518;50.930;5.344;2023-08-01T00:43:29;1.30;;;1.00;;
12900;SDS011;6518;50.930;5.344;2023-08-01T00:45:59;3.83;;;1.13;;
12900;SDS011;6518;50.930;5.344;2023-08-01T00:48:27;2.50;;;1.02;;
12900;SDS011;6518;50.930;5.344;2023-08-01T00:50:56;0.82;;;0.82;;
12900;SDS011;6518;50.930;5.344;2023-08-01T00:53:24;2.20;;;1.13;;
12900;SDS011;6518;50.930;5.344;2023-08-01T00:55:51;1.92;;;1.15;;
12900;SDS011;6518;50.930;5.344;2023-08-01T00:58:19;2.28;;;1.20;;
12900;SDS011;6518;50.930;5.344;2023-08-01T01:00:46;1.38;;;1.10;;
12900;SDS011;6518;50.930;5.344;2023-08-01T01:03:13;1.90;;;1.10;;
12900;SDS011;6518;50.930;5.344;2023-08-01T01:05:42;2.50;;;1.15;;
12900;SDS011;6518;50.930;5.344;2023-08-01T01:08:15;1.63;;;0.98;;
12900;SDS011;6518;50.930;5.344;2023-08-01T01:10:42;1.40;;;1.30;;
12900;SDS011;6518;50.930;5.344;2023-08-01T01:13:09;2.03;;;1.40;;
12900;SDS011;6518;50.930;5.344;2023-08-01T01:15:36;2.50;;;1.77;;
12900;SDS011;6518;50.930;5.344;2023-08-01T01:18:03;4.40;;;1.45;;
12900;SDS011;6518;50.930;5.344;2023-08-01T01:20:33;1.60;;;1.40;;
12900;SDS011;6518;50.930;5.344;2023-08-01T01:23:01;3.15;;;1.55;;
12900;SDS011;6518;50.930;5.344;2023-08-01T01:25:30;3.22;;;1.60;;
12900;SDS011;6518;50.930;5.344;2023-08-01T01:27:58;5.72;;;1.88;;
12900;SDS011;6518;50.930;5.344;2023-08-01T01:30:27;1.90;;;1.40;;
12900;SDS011;6518;50.930;5.344;2023-08-01T01:32:55;2.75;;;1.83;;
12900;SDS011;6518;50.930;5.344;2023-08-01T01:35:23;3.15;;;2.10;;
12900;SDS011;6518;50.930;5.344;2023-08-01T01:37:52;4.97;;;2.08;;
12900;SDS011;6518;50.930;5.344;2023-08-01T01:40:19;3.05;;;2.30;;
12900;SDS011;6518;50.930;5.344;2023-08-01T01:42:45;2.70;;;2.08;;
12900;SDS011;6518;50.930;5.344;2023-08-01T01:45:14;3.00;;;2.35;;
12900;SDS011;6518;50.930;5.344;2023-08-01T01:47:41;2.85;;;2.30;;
12900;SDS011;6518;50.930;5.344;2023-08-01T01:50:08;5.07;;;2.58;;
12900;SDS011;6518;50.930;5.344;2023-08-01T01:52:35;5.97;;;2.97;;
12900;SDS011;6518;50.930;5.344;2023-08-01T01:55:04;8.23;;;3.35;;
12900;SDS011;6518;50.930;5.344;2023-08-01T01:57:31;3.33;;;2.60;;
12900;SDS011;6518;50.930;5.344;2023-08-01T02:00:00;5.10;;;3.35;;
12900;SDS011;6518;50.930;5.344;2023-08-01T02:02:27;5.82;;;2.97;;
12900;SDS011;6518;50.930;5.344;2023-08-01T02:04:54;3.50;;;2.50;;
12900;SDS011;6518;50.930;5.344;2023-08-01T02:07:21;5.05;;;3.08;;
12900;SDS011;6518;50.930;5.344;2023-08-01T02:09:48;4.25;;;3.00;;
12900;SDS011;6518;50.930;5.344;2023-08-01T02:12:16;4.47;;;2.80;;
12900;SDS011;6518;50.930;5.344;2023-08-01T02:14:44;5.35;;;3.03;;
12900;SDS011;6518;50.930;5.344;2023-08-01T02:17:11;6.18;;;3.30;;
12900;SDS011;6518;50.930;5.344;2023-08-01T02:19:38;6.32;;;3.40;;
12900;SDS011;6518;50.930;5.344;2023-08-01T02:22:05;7.22;;;3.60;;
12900;SDS011;6518;50.930;5.344;2023-08-01T02:24:32;4.10;;;3.10;;
12900;SDS011;6518;50.930;5.344;2023-08-01T02:26:59;5.47;;;3.63;;
12900;SDS011;6518;50.930;5.344;2023-08-01T02:29:27;6.05;;;3.92;;
12900;SDS011;6518;50.930;5.344;2023-08-01T02:31:54;7.95;;;3.70;;
12900;SDS011;6518;50.930;5.344;2023-08-01T02:34:21;6.38;;;3.78;;
12900;SDS011;6518;50.930;5.344;2023-08-01T02:36:48;8.25;;;3.50;;
12900;SDS011;6518;50.930;5.344;2023-08-01T02:39:15;8.07;;;3.83;;
12900;SDS011;6518;50.930;5.344;2023-08-01T02:41:42;7.43;;;4.00;;
12900;SDS011;6518;50.930;5.344;2023-08-01T02:44:09;6.72;;;4.03;;
12900;SDS011;6518;50.930;5.344;2023-08-01T02:46:38;6.28;;;3.88;;
12900;SDS011;6518;50.930;5.344;2023-08-01T02:49:06;5.18;;;4.28;;
12900;SDS011;6518;50.930;5.344;2023-08-01T02:51:32;6.05;;;3.75;;
12900;SDS011;6518;50.930;5.344;2023-08-01T02:53:59;5.20;;;3.57;;
12900;SDS011;6518;50.930;5.344;2023-08-01T02:56:25;5.78;;;4.03;;
12900;SDS011;6518;50.930;5.344;2023-08-01T02:58:53;6.03;;;4.05;;
12900;SDS011;6518;50.930;5.344;2023-08-01T03:01:22;5.68;;;4.18;;
12900;SDS011;6518;50.930;5.344;2023-08-01T03:03:50;6.78;;;4.55;;
12900;SDS011;6518;50.930;5.344;2023-08-01T03:06:17;6.22;;;4.15;;
12900;SDS011;6518;50.930;5.344;2023-08-01T03:08:44;6.78;;;4.45;;
12900;SDS011;6518;50.930;5.344;2023-08-01T03:11:12;7.27;;;3.83;;
12900;SDS011;6518;50.930;5.344;2023-08-01T03:13:39;8.02;;;4.50;;
12900;SDS011;6518;50.930;5.344;2023-08-01T03:16:06;11.40;;;4.15;;
12900;SDS011;6518;50.930;5.344;2023-08-01T03:18:35;6.78;;;4.53;;
12900;SDS011;6518;50.930;5.344;2023-08-01T03:21:03;6.90;;;4.13;;
12900;SDS011;6518;50.930;5.344;2023-08-01T03:23:31;9.10;;;4.47;;
12900;SDS011;6518;50.930;5.344;2023-08-01T03:25:58;5.60;;;3.95;;
12900;SDS011;6518;50.930;5.344;2023-08-01T03:28:25;5.15;;;4.25;;
12900;SDS011;6518;50.930;5.344;2023-08-01T03:30:52;6.88;;;4.60;;
12900;SDS011;6518;50.930;5.344;2023-08-01T03:33:19;7.93;;;4.35;;
12900;SDS011;6518;50.930;5.344;2023-08-01T03:35:46;7.82;;;4.47;;
12900;SDS011;6518;50.930;5.344;2023-08-01T03:38:15;7.60;;;4.10;;
12900;SDS011;6518;50.930;5.344;2023-08-01T03:40:42;6.28;;;4.30;;
12900;SDS011;6518;50.930;5.344;2023-08-01T03:43:09;8.95;;;4.00;;
12900;SDS011;6518;50.930;5.344;2023-08-01T03:45:36;8.10;;;4.28;;
12900;SDS011;6518;50.930;5.344;2023-08-01T03:48:03;7.88;;;4.22;;
12900;SDS011;6518;50.930;5.344;2023-08-01T03:50:30;8.70;;;4.55;;
12900;SDS011;6518;50.930;5.344;2023-08-01T03:52:57;6.55;;;4.05;;
12900;SDS011;6518;50.930;5.344;2023-08-01T03:55:25;8.32;;;4.40;;
12900;SDS011;6518;50.930;5.344;2023-08-01T03:57:52;8.57;;;4.68;;
12900;SDS011;6518;50.930;5.344;2023-08-01T04:00:19;9.13;;;4.22;;
12900;SDS011;6518;50.930;5.344;2023-08-01T04:02:46;7.07;;;4.90;;
12900;SDS011;6518;50.930;5.344;2023-08-01T04:05:13;6.88;;;4.20;;
12900;SDS011;6518;50.930;5.344;2023-08-01T04:07:40;8.70;;;4.63;;
12900;SDS011;6518;50.930;5.344;2023-08-01T04:10:08;8.25;;;4.93;;
12900;SDS011;6518;50.930;5.344;2023-08-01T04:12:37;10.55;;;4.35;;
12900;SDS011;6518;50.930;5.344;2023-08-01T04:15:04;9.75;;;5.18;;
12900;SDS011;6518;50.930;5.344;2023-08-01T04:17:32;7.15;;;4.40;;
12900;SDS011;6518;50.930;5.344;2023-08-01T04:19:59;7.95;;;4.57;;
12900;SDS011;6518;50.930;5.344;2023-08-01T04:22:26;7.90;;;5.03;;
12900;SDS011;6518;50.930;5.344;2023-08-01T04:24:53;7.72;;;4.72;;
12900;SDS011;6518;50.930;5.344;2023-08-01T04:27:20;8.88;;;5.07;;
12900;SDS011;6518;50.930;5.344;2023-08-01T04:29:48;8.30;;;4.78;;
12900;SDS011;6518;50.930;5.344;2023-08-01T04:32:15;6.85;;;4.35;;
12900;SDS011;6518;50.930;5.344;2023-08-01T04:34:42;8.20;;;4.93;;
12900;SDS011;6518;50.930;5.344;2023-08-01T04:37:09;9.23;;;4.82;;
12900;SDS011;6518;50.930;5.344;2023-08-01T04:39:36;8.80;;;4.65;;
12900;SDS011;6518;50.930;5.344;2023-08-01T04:42:04;7.63;;;5.40;;
12900;SDS011;6518;50.930;5.344;2023-08-01T04:44:31;9.67;;;5.53;;
12900;SDS011;6518;50.930;5.344;2023-08-01T04:47:00;8.32;;;4.97;;
12900;SDS011;6518;50.930;5.344;2023-08-01T04:49:26;11.15;;;5.55;;
12900;SDS011;6518;50.930;5.344;2023-08-01T04:51:53;11.23;;;5.78;;
12900;SDS011;6518;50.930;5.344;2023-08-01T04:54:21;12.20;;;5.32;;
12900;SDS011;6518;50.930;5.344;2023-08-01T04:56:48;10.90;;;5.40;;
12900;SDS011;6518;50.930;5.344;2023-08-01T04:59:15;10.45;;;5.70;;
12900;SDS011;6518;50.930;5.344;2023-08-01T05:01:42;15.02;;;6.38;;
12900;SDS011;6518;50.930;5.344;2023-08-01T05:04:11;9.55;;;5.55;;
12900;SDS011;6518;50.930;5.344;2023-08-01T05:06:38;10.25;;;5.43;;
12900;SDS011;6518;50.930;5.344;2023-08-01T05:09:05;11.85;;;5.40;;
12900;SDS011;6518;50.930;5.344;2023-08-01T05:11:32;13.75;;;6.00;;
12900;SDS011;6518;50.930;5.344;2023-08-01T05:13:59;9.65;;;5.70;;
12900;SDS011;6518;50.930;5.344;2023-08-01T05:16:26;8.55;;;5.53;;
12900;SDS011;6518;50.930;5.344;2023-08-01T05:18:53;10.25;;;5.40;;
12900;SDS011;6518;50.930;5.344;2023-08-01T05:21:21;11.65;;;5.82;;
12900;SDS011;6518;50.930;5.344;2023-08-01T05:23:48;11.70;;;5.60;;
12900;SDS011;6518;50.930;5.344;2023-08-01T05:26:15;12.65;;;5.40;;
12900;SDS011;6518;50.930;5.344;2023-08-01T05:28:42;17.90;;;5.47;;
12900;SDS011;6518;50.930;5.344;2023-08-01T05:31:10;12.90;;;5.43;;
12900;SDS011;6518;50.930;5.344;2023-08-01T05:33:37;11.02;;;5.25;;
12900;SDS011;6518;50.930;5.344;2023-08-01T05:36:04;14.95;;;5.82;;
12900;SDS011;6518;50.930;5.344;2023-08-01T05:38:33;9.75;;;5.18;;
12900;SDS011;6518;50.930;5.344;2023-08-01T05:41:00;11.60;;;5.40;;
12900;SDS011;6518;50.930;5.344;2023-08-01T05:43:27;9.10;;;4.88;;
12900;SDS011;6518;50.930;5.344;2023-08-01T05:45:54;12.25;;;5.82;;
12900;SDS011;6518;50.930;5.344;2023-08-01T05:48:21;10.10;;;5.20;;
12900;SDS011;6518;50.930;5.344;2023-08-01T05:50:48;10.50;;;5.72;;
12900;SDS011;6518;50.930;5.344;2023-08-01T05:53:15;10.35;;;5.07;;
12900;SDS011;6518;50.930;5.344;2023-08-01T05:55:43;10.50;;;5.80;;
12900;SDS011;6518;50.930;5.344;2023-08-01T05:58:10;11.18;;;6.30;;
12900;SDS011;6518;50.930;5.344;2023-08-01T06:00:37;10.60;;;5.70;;
12900;SDS011;6518;50.930;5.344;2023-08-01T06:03:04;10.32;;;6.35;;
12900;SDS011;6518;50.930;5.344;2023-08-01T06:05:31;12.38;;;6.20;;
12900;SDS011;6518;50.930;5.344;2023-08-01T06:07:58;12.38;;;6.38;;
12900;SDS011;6518;50.930;5.344;2023-08-01T06:10:25;11.20;;;6.60;;
12900;SDS011;6518;50.930;5.344;2023-08-01T06:12:53;13.68;;;6.18;;
12900;SDS011;6518;50.930;5.344;2023-08-01T06:15:20;11.63;;;6.57;;
12900;SDS011;6518;50.930;5.344;2023-08-01T06:17:47;13.23;;;6.20;;
12900;SDS011;6518;50.930;5.344;2023-08-01T06:20:14;14.10;;;7.07;;
12900;SDS011;6518;50.930;5.344;2023-08-01T06:22:41;14.68;;;6.93;;
12900;SDS011;6518;50.930;5.344;2023-08-01T06:25:08;11.13;;;6.53;;
12900;SDS011;6518;50.930;5.344;2023-08-01T06:27:36;11.80;;;6.28;;
12900;SDS011;6518;50.930;5.344;2023-08-01T06:30:05;13.55;;;6.63;;
12900;SDS011;6518;50.930;5.344;2023-08-01T06:32:32;15.30;;;7.75;;
12900;SDS011;6518;50.930;5.344;2023-08-01T06:34:59;12.50;;;6.82;;
12900;SDS011;6518;50.930;5.344;2023-08-01T06:37:26;14.35;;;6.80;;
12900;SDS011;6518;50.930;5.344;2023-08-01T06:39:54;10.82;;;6.43;;
12900;SDS011;6518;50.930;5.344;2023-08-01T06:42:21;10.98;;;6.90;;
12900;SDS011;6518;50.930;5.344;2023-08-01T06:44:48;13.85;;;6.75;;
12900;SDS011;6518;50.930;5.344;2023-08-01T06:47:16;10.93;;;6.15;;
12900;SDS011;6518;50.930;5.344;2023-08-01T06:49:43;10.70;;;6.20;;
12900;SDS011;6518;50.930;5.344;2023-08-01T06:52:10;11.27;;;6.63;;
12900;SDS011;6518;50.930;5.344;2023-08-01T06:54:37;14.63;;;6.38;;
12900;SDS011;6518;50.930;5.344;2023-08-01T06:57:05;11.20;;;6.35;;
12900;SDS011;6518;50.930;5.344;2023-08-01T06:59:33;10.88;;;6.13;;
12900;SDS011;6518;50.930;5.344;2023-08-01T07:02:00;15.07;;;5.95;;
12900;SDS011;6518;50.930;5.344;2023-08-01T07:04:28;12.40;;;5.80;;
12900;SDS011;6518;50.930;5.344;2023-08-01T07:06:55;9.82;;;5.88;;
12900;SDS011;6518;50.930;5.344;2023-08-01T07:09:22;9.63;;;5.68;;
12900;SDS011;6518;50.930;5.344;2023-08-01T07:11:49;10.63;;;5.68;;
12900;SDS011;6518;50.930;5.344;2023-08-01T07:14:16;10.30;;;6.07;;
12900;SDS011;6518;50.930;5.344;2023-08-01T07:16:43;12.25;;;5.63;;
12900;SDS011;6518;50.930;5.344;2023-08-01T07:19:10;12.25;;;6.22;;
12900;SDS011;6518;50.930;5.344;2023-08-01T07:21:38;14.25;;;6.00;;
12900;SDS011;6518;50.930;5.344;2023-08-01T07:24:05;12.57;;;5.90;;
12900;SDS011;6518;50.930;5.344;2023-08-01T07:26:32;10.48;;;6.47;;
12900;SDS011;6518;50.930;5.344;2023-08-01T07:28:59;11.75;;;5.72;;
12900;SDS011;6518;50.930;5.344;2023-08-01T07:31:26;11.15;;;5.72;;
12900;SDS011;6518;50.930;5.344;2023-08-01T07:33:53;9.85;;;6.22;;
12900;SDS011;6518;50.930;5.344;2023-08-01T07:36:20;10.95;;;5.78;;
12900;SDS011;6518;50.930;5.344;2023-08-01T07:38:49;10.13;;;5.40;;
12900;SDS011;6518;50.930;5.344;2023-08-01T07:41:15;14.93;;;5.53;;
12900;SDS011;6518;50.930;5.344;2023-08-01T07:43:42;10.20;;;6.10;;
12900;SDS011;6518;50.930;5.344;2023-08-01T07:46:09;13.13;;;6.22;;
12900;SDS011;6518;50.930;5.344;2023-08-01T07:48:36;9.85;;;5.35;;
12900;SDS011;6518;50.930;5.344;2023-08-01T07:51:04;12.15;;;5.45;;
12900;SDS011;6518;50.930;5.344;2023-08-01T07:53:32;9.93;;;4.97;;
12900;SDS011;6518;50.930;5.344;2023-08-01T07:56:01;9.90;;;4.93;;
12900;SDS011;6518;50.930;5.344;2023-08-01T07:58:28;7.93;;;5.07;;
12900;SDS011;6518;50.930;5.344;2023-08-01T08:00:55;12.60;;;7.32;;
12900;SDS011;6518;50.930;5.344;2023-08-01T08:03:22;12.10;;;6.47;;
12900;SDS011;6518;50.930;5.344;2023-08-01T08:05:49;10.20;;;5.38;;
12900;SDS011;6518;50.930;5.344;2023-08-01T08:08:17;9.05;;;5.20;;
12900;SDS011;6518;50.930;5.344;2023-08-01T08:10:44;8.70;;;4.97;;
12900;SDS011;6518;50.930;5.344;2023-08-01T08:13:13;11.07;;;5.30;;
12900;SDS011;6518;50.930;5.344;2023-08-01T08:15:39;10.82;;;5.65;;
12900;SDS011;6518;50.930;5.344;2023-08-01T08:18:07;9.80;;;5.28;;
12900;SDS011;6518;50.930;5.344;2023-08-01T08:20:40;9.07;;;5.07;;
12900;SDS011;6518;50.930;5.344;2023-08-01T08:23:08;8.05;;;4.85;;
12900;SDS011;6518;50.930;5.344;2023-08-01T08:25:35;12.30;;;5.00;;
12900;SDS011;6518;50.930;5.344;2023-08-01T08:28:02;9.48;;;4.93;;
12900;SDS011;6518;50.930;5.344;2023-08-01T08:30:31;7.13;;;4.90;;
12900;SDS011;6518;50.930;5.344;2023-08-01T08:32:58;9.45;;;4.95;;
12900;SDS011;6518;50.930;5.344;2023-08-01T08:35:29;8.30;;;4.97;;
12900;SDS011;6518;50.930;5.344;2023-08-01T08:37:58;9.60;;;4.78;;
12900;SDS011;6518;50.930;5.344;2023-08-01T08:40:26;12.02;;;5.50;;
12900;SDS011;6518;50.930;5.344;2023-08-01T08:42:53;7.40;;;5.13;;
12900;SDS011;6518;50.930;5.344;2023-08-01T08:45:21;11.18;;;5.63;;
12900;SDS011;6518;50.930;5.344;2023-08-01T08:47:52;10.55;;;4.75;;
12900;SDS011;6518;50.930;5.344;2023-08-01T08:50:23;9.15;;;4.68;;
12900;SDS011;6518;50.930;5.344;2023-08-01T08:52:51;8.32;;;4.38;;
12900;SDS011;6518;50.930;5.344;2023-08-01T08:55:19;10.18;;;4.57;;
12900;SDS011;6518;50.930;5.344;2023-08-01T08:57:48;7.82;;;4.20;;
12900;SDS011;6518;50.930;5.344;2023-08-01T09:00:17;7.63;;;3.88;;
12900;SDS011;6518;50.930;5.344;2023-08-01T09:02:45;8.30;;;4.53;;
12900;SDS011;6518;50.930;5.344;2023-08-01T09:05:13;11.32;;;3.88;;
12900;SDS011;6518;50.930;5.344;2023-08-01T09:07:42;11.00;;;4.28;;
12900;SDS011;6518;50.930;5.344;2023-08-01T09:10:11;8.93;;;4.10;;
12900;SDS011;6518;50.930;5.344;2023-08-01T09:12:39;6.20;;;3.63;;
12900;SDS011;6518;50.930;5.344;2023-08-01T09:15:06;12.82;;;4.22;;
12900;SDS011;6518;50.930;5.344;2023-08-01T09:17:34;6.65;;;3.90;;
12900;SDS011;6518;50.930;5.344;2023-08-01T09:20:05;8.25;;;4.00;;
12900;SDS011;6518;50.930;5.344;2023-08-01T09:22:42;10.02;;;3.63;;
12900;SDS011;6518;50.930;5.344;2023-08-01T09:25:10;6.50;;;3.70;;
12900;SDS011;6518;50.930;5.344;2023-08-01T09:27:38;11.95;;;4.35;;
12900;SDS011;6518;50.930;5.344;2023-08-01T09:30:06;7.68;;;4.00;;
12900;SDS011;6518;50.930;5.344;2023-08-01T09:32:34;8.35;;;4.25;;
12900;SDS011;6518;50.930;5.344;2023-08-01T09:35:01;5.40;;;3.92;;
12900;SDS011;6518;50.930;5.344;2023-08-01T09:37:37;7.55;;;4.00;;
12900;SDS011;6518;50.930;5.344;2023-08-01T09:40:07;7.68;;;3.67;;
12900;SDS011;6518;50.930;5.344;2023-08-01T09:42:38;6.95;;;3.95;;
12900;SDS011;6518;50.930;5.344;2023-08-01T09:45:07;12.20;;;4.40;;
12900;SDS011;6518;50.930;5.344;2023-08-01T09:47:39;9.60;;;3.60;;
12900;SDS011;6518;50.930;5.344;2023-08-01T09:50:06;6.25;;;3.00;;
12900;SDS011;6518;50.930;5.344;2023-08-01T09:52:35;6.75;;;3.25;;
12900;SDS011;6518;50.930;5.344;2023-08-01T09:55:02;7.30;;;2.97;;
12900;SDS011;6518;50.930;5.344;2023-08-01T09:57:31;8.55;;;3.30;;
12900;SDS011;6518;50.930;5.344;2023-08-01T09:59:58;10.57;;;2.70;;
12900;SDS011;6518;50.930;5.344;2023-08-01T10:02:26;5.03;;;2.60;;
12900;SDS011;6518;50.930;5.344;2023-08-01T10:04:57;6.88;;;2.63;;
12900;SDS011;6518;50.930;5.344;2023-08-01T10:07:27;5.78;;;3.13;;
12900;SDS011;6518;50.930;5.344;2023-08-01T10:09:57;5.05;;;2.33;;
12900;SDS011;6518;50.930;5.344;2023-08-01T10:12:25;50.53;;;25.17;;
12900;SDS011;6518;50.930;5.344;2023-08-01T10:14:54;6.30;;;3.30;;
12900;SDS011;6518;50.930;5.344;2023-08-01T10:17:22;9.40;;;3.80;;
12900;SDS011;6518;50.930;5.344;2023-08-01T10:19:51;6.00;;;2.50;;
12900;SDS011;6518;50.930;5.344;2023-08-01T10:22:21;6.40;;;2.45;;
12900;SDS011;6518;50.930;5.344;2023-08-01T10:24:49;4.82;;;2.25;;
12900;SDS011;6518;50.930;5.344;2023-08-01T10:27:18;4.65;;;2.40;;
12900;SDS011;6518;50.930;5.344;2023-08-01T10:29:57;8.05;;;2.53;;
12900;SDS011;6518;50.930;5.344;2023-08-01T10:32:29;5.38;;;2.50;;
12900;SDS011;6518;50.930;5.344;2023-08-01T10:34:58;6.30;;;2.28;;
12900;SDS011;6518;50.930;5.344;2023-08-01T10:37:25;6.00;;;2.53;;
12900;SDS011;6518;50.930;5.344;2023-08-01T10:39:56;7.43;;;2.53;;
12900;SDS011;6518;50.930;5.344;2023-08-01T10:42:23;5.72;;;2.70;;
12900;SDS011;6518;50.930;5.344;2023-08-01T10:44:51;6.65;;;2.65;;
12900;SDS011;6518;50.930;5.344;2023-08-01T10:47:26;7.38;;;2.72;;
12900;SDS011;6518;50.930;5.344;2023-08-01T10:49:53;6.10;;;2.22;;
12900;SDS011;6518;50.930;5.344;2023-08-01T10:52:21;5.50;;;2.33;;
12900;SDS011;6518;50.930;5.344;2023-08-01T10:54:55;4.97;;;2.40;;
12900;SDS011;6518;50.930;5.344;2023-08-01T10:57:24;5.78;;;2.50;;
12900;SDS011;6518;50.930;5.344;2023-08-01T10:59:54;3.83;;;1.70;;
12900;SDS011;6518;50.930;5.344;2023-08-01T11:02:22;7.60;;;2.72;;
12900;SDS011;6518;50.930;5.344;2023-08-01T11:04:58;4.65;;;2.50;;
12900;SDS011;6518;50.930;5.344;2023-08-01T11:07:26;4.03;;;2.22;;
12900;SDS011;6518;50.930;5.344;2023-08-01T11:10:03;4.97;;;2.28;;
12900;SDS011;6518;50.930;5.344;2023-08-01T11:12:33;5.55;;;2.10;;
12900;SDS011;6518;50.930;5.344;2023-08-01T11:15:03;5.95;;;2.47;;
12900;SDS011;6518;50.930;5.344;2023-08-01T11:17:33;4.80;;;2.15;;
12900;SDS011;6518;50.930;5.344;2023-08-01T11:20:02;5.80;;;2.78;;
12900;SDS011;6518;50.930;5.344;2023-08-01T11:22:30;3.22;;;2.20;;
12900;SDS011;6518;50.930;5.344;2023-08-01T11:24:57;4.93;;;2.60;;
12900;SDS011;6518;50.930;5.344;2023-08-01T11:27:24;6.10;;;2.85;;
12900;SDS011;6518;50.930;5.344;2023-08-01T11:29:52;3.90;;;2.42;;
12900;SDS011;6518;50.930;5.344;2023-08-01T11:32:19;3.83;;;2.22;;
12900;SDS011;6518;50.930;5.344;2023-08-01T11:34:48;3.83;;;2.28;;
12900;SDS011;6518;50.930;5.344;2023-08-01T11:37:18;8.35;;;2.80;;
12900;SDS011;6518;50.930;5.344;2023-08-01T11:39:46;4.45;;;2.70;;
12900;SDS011;6518;50.930;5.344;2023-08-01T11:42:17;5.07;;;2.72;;
12900;SDS011;6518;50.930;5.344;2023-08-01T11:44:44;5.03;;;2.15;;
12900;SDS011;6518;50.930;5.344;2023-08-01T11:47:12;5.88;;;2.80;;
12900;SDS011;6518;50.930;5.344;2023-08-01T11:49:45;4.97;;;2.40;;
12900;SDS011;6518;50.930;5.344;2023-08-01T11:52:23;5.38;;;2.20;;
12900;SDS011;6518;50.930;5.344;2023-08-01T11:54:50;3.20;;;2.13;;
12900;SDS011;6518;50.930;5.344;2023-08-01T11:57:19;5.63;;;2.60;;
12900;SDS011;6518;50.930;5.344;2023-08-01T11:59:47;4.88;;;2.25;;
12900;SDS011;6518;50.930;5.344;2023-08-01T12:02:22;4.93;;;2.60;;
12900;SDS011;6518;50.930;5.344;2023-08-01T12:04:50;5.40;;;2.90;;
12900;SDS011;6518;50.930;5.344;2023-08-01T12:07:17;7.93;;;2.80;;
12900;SDS011;6518;50.930;5.344;2023-08-01T12:09:54;7.35;;;3.08;;
12900;SDS011;6518;50.930;5.344;2023-08-01T12:12:22;4.78;;;2.40;;
12900;SDS011;6518;50.930;5.344;2023-08-01T12:14:49;5.38;;;2.60;;
12900;SDS011;6518;50.930;5.344;2023-08-01T12:17:17;5.20;;;2.80;;
12900;SDS011;6518;50.930;5.344;2023-08-01T12:19:44;5.63;;;2.50;;
12900;SDS011;6518;50.930;5.344;2023-08-01T12:22:11;5.00;;;2.38;;
12900;SDS011;6518;50.930;5.344;2023-08-01T12:24:39;4.57;;;2.40;;
12900;SDS011;6518;50.930;5.344;2023-08-01T12:27:09;4.93;;;2.00;;
12900;SDS011;6518;50.930;5.344;2023-08-01T12:29:37;5.13;;;2.20;;
12900;SDS011;6518;50.930;5.344;2023-08-01T12:32:04;6.95;;;2.38;;
12900;SDS011;6518;50.930;5.344;2023-08-01T12:34:33;3.17;;;1.92;;
12900;SDS011;6518;50.930;5.344;2023-08-01T12:37:00;3.38;;;1.90;;
12900;SDS011;6518;50.930;5.344;2023-08-01T12:39:28;5.22;;;2.03;;
12900;SDS011;6518;50.930;5.344;2023-08-01T12:41:55;4.32;;;2.13;;
12900;SDS011;6518;50.930;5.344;2023-08-01T12:44:23;3.08;;;1.80;;
12900;SDS011;6518;50.930;5.344;2023-08-01T12:46:50;4.00;;;2.00;;
12900;SDS011;6518;50.930;5.344;2023-08-01T12:49:17;3.60;;;1.80;;
12900;SDS011;6518;50.930;5.344;2023-08-01T12:51:45;4.75;;;1.75;;
12900;SDS011;6518;50.930;5.344;2023-08-01T12:54:12;5.25;;;2.28;;
12900;SDS011;6518;50.930;5.344;2023-08-01T12:56:39;4.65;;;1.90;;
12900;SDS011;6518;50.930;5.344;2023-08-01T12:59:06;4.80;;;1.98;;
12900;SDS011;6518;50.930;5.344;2023-08-01T13:01:35;4.25;;;1.92;;
12900;SDS011;6518;50.930;5.344;2023-08-01T13:04:02;4.63;;;1.80;;
12900;SDS011;6518;50.930;5.344;2023-08-01T13:06:29;3.88;;;1.80;;
12900;SDS011;6518;50.930;5.344;2023-08-01T13:08:56;6.57;;;2.00;;
12900;SDS011;6518;50.930;5.344;2023-08-01T13:11:23;3.22;;;1.92;;
12900;SDS011;6518;50.930;5.344;2023-08-01T13:13:50;2.65;;;1.40;;
12900;SDS011;6518;50.930;5.344;2023-08-01T13:16:17;4.78;;;1.98;;
12900;SDS011;6518;50.930;5.344;2023-08-01T13:18:46;2.65;;;1.40;;
12900;SDS011;6518;50.930;5.344;2023-08-01T13:21:13;4.18;;;1.73;;
12900;SDS011;6518;50.930;5.344;2023-08-01T13:23:40;3.25;;;1.50;;
12900;SDS011;6518;50.930;5.344;2023-08-01T13:26:07;2.97;;;1.50;;
12900;SDS011;6518;50.930;5.344;2023-08-01T13:28:34;4.25;;;2.15;;
12900;SDS011;6518;50.930;5.344;2023-08-01T13:31:01;4.15;;;1.98;;
12900;SDS011;6518;50.930;5.344;2023-08-01T13:33:28;5.85;;;1.95;;
12900;SDS011;6518;50.930;5.344;2023-08-01T13:35:56;5.00;;;1.95;;
12900;SDS011;6518;50.930;5.344;2023-08-01T13:38:24;5.00;;;1.85;;
12900;SDS011;6518;50.930;5.344;2023-08-01T13:40:51;4.80;;;2.00;;
12900;SDS011;6518;50.930;5.344;2023-08-01T13:43:18;4.50;;;1.83;;
12900;SDS011;6518;50.930;5.344;2023-08-01T13:45:45;4.63;;;2.05;;
12900;SDS011;6518;50.930;5.344;2023-08-01T13:48:12;2.85;;;1.70;;
12900;SDS011;6518;50.930;5.344;2023-08-01T13:50:39;5.07;;;1.90;;
12900;SDS011;6518;50.930;5.344;2023-08-01T13:53:07;5.65;;;1.95;;
12900;SDS011;6518;50.930;5.344;2023-08-01T13:55:37;5.72;;;2.03;;
12900;SDS011;6518;50.930;5.344;2023-08-01T13:58:04;3.97;;;1.98;;
12900;SDS011;6518;50.930;5.344;2023-08-01T14:00:31;3.05;;;1.70;;
12900;SDS011;6518;50.930;5.344;2023-08-01T14:02:58;4.78;;;1.80;;
12900;SDS011;6518;50.930;5.344;2023-08-01T14:05:26;4.68;;;1.70;;
12900;SDS011;6518;50.930;5.344;2023-08-01T14:07:53;3.00;;;1.63;;
12900;SDS011;6518;50.930;5.344;2023-08-01T14:10:23;5.00;;;1.83;;
12900;SDS011;6518;50.930;5.344;2023-08-01T14:12:50;2.95;;;1.67;;
12900;SDS011;6518;50.930;5.344;2023-08-01T14:15:17;3.92;;;1.70;;
12900;SDS011;6518;50.930;5.344;2023-08-01T14:17:44;6.38;;;1.90;;
12900;SDS011;6518;50.930;5.344;2023-08-01T14:20:11;3.97;;;1.83;;
12900;SDS011;6518;50.930;5.344;2023-08-01T14:22:38;2.42;;;1.35;;
12900;SDS011;6518;50.930;5.344;2023-08-01T14:25:07;3.40;;;1.60;;
12900;SDS011;6518;50.930;5.344;2023-08-01T14:27:36;4.07;;;1.73;;
12900;SDS011;6518;50.930;5.344;2023-08-01T14:30:03;4.57;;;1.30;;
12900;SDS011;6518;50.930;5.344;2023-08-01T14:32:31;5.75;;;1.70;;
12900;SDS011;6518;50.930;5.344;2023-08-01T14:34:58;3.35;;;1.23;;
12900;SDS011;6518;50.930;5.344;2023-08-01T14:37:25;2.65;;;1.40;;
12900;SDS011;6518;50.930;5.344;2023-08-01T14:39:54;2.53;;;1.20;;
12900;SDS011;6518;50.930;5.344;2023-08-01T14:42:21;3.45;;;1.48;;
12900;SDS011;6518;50.930;5.344;2023-08-01T14:44:52;3.88;;;1.38;;
12900;SDS011;6518;50.930;5.344;2023-08-01T14:47:19;4.65;;;1.73;;
12900;SDS011;6518;50.930;5.344;2023-08-01T14:49:46;5.47;;;1.70;;
12900;SDS011;6518;50.930;5.344;2023-08-01T14:52:13;4.10;;;2.28;;
12900;SDS011;6518;50.930;5.344;2023-08-01T14:54:40;7.38;;;1.48;;
12900;SDS011;6518;50.930;5.344;2023-08-01T14:57:07;4.75;;;1.52;;
12900;SDS011;6518;50.930;5.344;2023-08-01T14:59:34;4.03;;;1.73;;
12900;SDS011;6518;50.930;5.344;2023-08-01T15:02:03;5.30;;;1.95;;